CheckWX is a tool to help pilots better visualize weather data.  It is not intended as a substitute for an official pre-flight weather briefing.

06:46:15 UTC

KHIO TAF
Portland-Hillsboro Airport
Portland, Oregon, USA
KHIO 160537Z 1606/1706 32010KT P6SM SKC FM160900 31006KT P6SM SKC FM161600 00000KT P6SM SCT025 FM161900 33003KT P6SM SKC FM170000 33010KT P6SM SCT250

Jun-16@
06:00 UTC

Jun-16 @ 06:00 UTC

Jun-16@
09:00 UTC

Jun-16 @ 09:00 UTC

KHIO 160537Z 1606/1706 32010KT P6SM SKC
Wind
  • 320° at 10 KTS
Cloud Levels
  • Clear skies

Jun-16@
09:00 UTC

Jun-16 @ 09:00 UTC

Jun-16@
16:00 UTC

Jun-16 @ 16:00 UTC

FM160900 31006KT P6SM SKC

From

From Standard forecast or significant change

Wind
  • 310° at 6 KTS
Cloud Levels
  • Clear skies

Jun-16@
16:00 UTC

Jun-16 @ 16:00 UTC

Jun-16@
19:00 UTC

Jun-16 @ 19:00 UTC

FM161600 00000KT P6SM SCT025

From

From Standard forecast or significant change

Cloud Levels
  • Scattered at 2,500' AGL

Jun-16@
19:00 UTC

Jun-16 @ 19:00 UTC

Jun-17@
00:00 UTC

Jun-17 @ 00:00 UTC

FM161900 33003KT P6SM SKC

From

From Standard forecast or significant change

Wind
  • 330° at 3 KTS
Cloud Levels
  • Clear skies

Jun-17@
00:00 UTC

Jun-17 @ 00:00 UTC

Jun-17@
06:00 UTC

Jun-17 @ 06:00 UTC

FM170000 33010KT P6SM SCT250

From

From Standard forecast or significant change

Wind
  • 330° at 10 KTS
Cloud Levels
  • Scattered at 25,000' AGL